sensor_id;sensor_type;location;lat;lon;timestamp;P1;durP1;ratioP1;P2;durP2;ratioP2
5646;SDS011;2845;48.626;9.362;2024-01-30T00:01:16;4.63;;;2.53;;
5646;SDS011;2845;48.626;9.362;2024-01-30T00:03:50;11.23;;;3.43;;
5646;SDS011;2845;48.626;9.362;2024-01-30T00:06:25;6.77;;;3.33;;
5646;SDS011;2845;48.626;9.362;2024-01-30T00:09:00;6.23;;;2.27;;
5646;SDS011;2845;48.626;9.362;2024-01-30T00:11:34;7.53;;;2.90;;
5646;SDS011;2845;48.626;9.362;2024-01-30T00:14:08;7.37;;;3.03;;
5646;SDS011;2845;48.626;9.362;2024-01-30T00:16:43;10.43;;;4.23;;
5646;SDS011;2845;48.626;9.362;2024-01-30T00:19:17;7.10;;;3.20;;
5646;SDS011;2845;48.626;9.362;2024-01-30T00:21:51;7.47;;;3.03;;
5646;SDS011;2845;48.626;9.362;2024-01-30T00:24:27;5.37;;;2.73;;
5646;SDS011;2845;48.626;9.362;2024-01-30T00:27:01;8.17;;;2.80;;
5646;SDS011;2845;48.626;9.362;2024-01-30T00:29:36;6.73;;;2.83;;
5646;SDS011;2845;48.626;9.362;2024-01-30T00:32:10;9.13;;;3.10;;
5646;SDS011;2845;48.626;9.362;2024-01-30T00:34:44;7.30;;;3.40;;
5646;SDS011;2845;48.626;9.362;2024-01-30T00:37:19;5.87;;;2.77;;
5646;SDS011;2845;48.626;9.362;2024-01-30T00:39:54;8.40;;;2.73;;
5646;SDS011;2845;48.626;9.362;2024-01-30T00:42:29;8.80;;;2.90;;
5646;SDS011;2845;48.626;9.362;2024-01-30T00:45:03;7.37;;;3.50;;
5646;SDS011;2845;48.626;9.362;2024-01-30T00:47:38;7.03;;;3.03;;
5646;SDS011;2845;48.626;9.362;2024-01-30T00:50:12;9.43;;;2.73;;
5646;SDS011;2845;48.626;9.362;2024-01-30T00:52:47;7.63;;;3.43;;
5646;SDS011;2845;48.626;9.362;2024-01-30T00:55:22;8.43;;;3.17;;
5646;SDS011;2845;48.626;9.362;2024-01-30T00:57:56;5.37;;;3.00;;
5646;SDS011;2845;48.626;9.362;2024-01-30T01:00:31;4.97;;;2.80;;
5646;SDS011;2845;48.626;9.362;2024-01-30T01:03:06;8.03;;;2.57;;
5646;SDS011;2845;48.626;9.362;2024-01-30T01:05:41;6.93;;;2.80;;
5646;SDS011;2845;48.626;9.362;2024-01-30T01:08:15;7.97;;;2.67;;
5646;SDS011;2845;48.626;9.362;2024-01-30T01:10:51;8.67;;;2.73;;
5646;SDS011;2845;48.626;9.362;2024-01-30T01:13:26;5.80;;;2.53;;
5646;SDS011;2845;48.626;9.362;2024-01-30T01:16:00;5.93;;;2.73;;
5646;SDS011;2845;48.626;9.362;2024-01-30T01:18:34;8.73;;;3.03;;
5646;SDS011;2845;48.626;9.362;2024-01-30T01:21:08;6.43;;;2.50;;
5646;SDS011;2845;48.626;9.362;2024-01-30T01:23:42;5.97;;;2.27;;
5646;SDS011;2845;48.626;9.362;2024-01-30T01:26:18;7.30;;;2.10;;
5646;SDS011;2845;48.626;9.362;2024-01-30T01:28:53;5.73;;;2.50;;
5646;SDS011;2845;48.626;9.362;2024-01-30T01:31:27;6.17;;;2.77;;
5646;SDS011;2845;48.626;9.362;2024-01-30T01:34:02;6.20;;;2.43;;
5646;SDS011;2845;48.626;9.362;2024-01-30T01:36:36;6.23;;;2.40;;
5646;SDS011;2845;48.626;9.362;2024-01-30T01:39:10;6.70;;;2.50;;
5646;SDS011;2845;48.626;9.362;2024-01-30T01:41:46;4.73;;;2.17;;
5646;SDS011;2845;48.626;9.362;2024-01-30T01:44:20;5.87;;;2.70;;
5646;SDS011;2845;48.626;9.362;2024-01-30T01:46:54;5.37;;;2.57;;
5646;SDS011;2845;48.626;9.362;2024-01-30T01:49:28;8.53;;;2.30;;
5646;SDS011;2845;48.626;9.362;2024-01-30T01:52:03;5.93;;;2.17;;
5646;SDS011;2845;48.626;9.362;2024-01-30T01:54:38;6.43;;;2.50;;
5646;SDS011;2845;48.626;9.362;2024-01-30T01:57:13;6.87;;;1.83;;
5646;SDS011;2845;48.626;9.362;2024-01-30T01:59:47;5.37;;;2.10;;
5646;SDS011;2845;48.626;9.362;2024-01-30T02:02:22;6.60;;;2.00;;
5646;SDS011;2845;48.626;9.362;2024-01-30T02:04:58;5.30;;;2.17;;
5646;SDS011;2845;48.626;9.362;2024-01-30T02:07:33;5.10;;;1.80;;
5646;SDS011;2845;48.626;9.362;2024-01-30T02:10:07;4.53;;;2.13;;
5646;SDS011;2845;48.626;9.362;2024-01-30T02:12:43;5.07;;;1.97;;
5646;SDS011;2845;48.626;9.362;2024-01-30T02:15:18;5.90;;;2.30;;
5646;SDS011;2845;48.626;9.362;2024-01-30T02:17:52;5.40;;;2.47;;
5646;SDS011;2845;48.626;9.362;2024-01-30T02:20:26;3.27;;;1.77;;
5646;SDS011;2845;48.626;9.362;2024-01-30T02:23:05;6.73;;;2.60;;
5646;SDS011;2845;48.626;9.362;2024-01-30T02:25:42;3.87;;;1.57;;
5646;SDS011;2845;48.626;9.362;2024-01-30T02:28:17;3.40;;;1.77;;
5646;SDS011;2845;48.626;9.362;2024-01-30T02:30:52;2.27;;;1.40;;
5646;SDS011;2845;48.626;9.362;2024-01-30T02:33:26;6.17;;;1.80;;
5646;SDS011;2845;48.626;9.362;2024-01-30T02:36:00;4.60;;;1.77;;
5646;SDS011;2845;48.626;9.362;2024-01-30T02:38:36;3.43;;;1.60;;
5646;SDS011;2845;48.626;9.362;2024-01-30T02:41:10;5.90;;;1.77;;
5646;SDS011;2845;48.626;9.362;2024-01-30T02:43:44;3.53;;;1.73;;
5646;SDS011;2845;48.626;9.362;2024-01-30T02:46:19;3.80;;;1.83;;
5646;SDS011;2845;48.626;9.362;2024-01-30T02:48:53;5.90;;;1.87;;
5646;SDS011;2845;48.626;9.362;2024-01-30T02:51:27;3.93;;;1.40;;
5646;SDS011;2845;48.626;9.362;2024-01-30T02:54:03;3.60;;;1.50;;
5646;SDS011;2845;48.626;9.362;2024-01-30T02:56:37;6.17;;;2.00;;
5646;SDS011;2845;48.626;9.362;2024-01-30T02:59:11;5.43;;;2.60;;
5646;SDS011;2845;48.626;9.362;2024-01-30T03:01:45;3.83;;;1.97;;
5646;SDS011;2845;48.626;9.362;2024-01-30T03:04:20;4.87;;;2.03;;
5646;SDS011;2845;48.626;9.362;2024-01-30T03:06:53;4.13;;;1.97;;
5646;SDS011;2845;48.626;9.362;2024-01-30T03:09:29;3.53;;;1.37;;
5646;SDS011;2845;48.626;9.362;2024-01-30T03:12:03;4.40;;;1.63;;
5646;SDS011;2845;48.626;9.362;2024-01-30T03:14:42;7.23;;;2.20;;
5646;SDS011;2845;48.626;9.362;2024-01-30T03:17:16;5.40;;;1.80;;
5646;SDS011;2845;48.626;9.362;2024-01-30T03:19:50;8.17;;;2.20;;
5646;SDS011;2845;48.626;9.362;2024-01-30T03:22:25;5.13;;;2.53;;
5646;SDS011;2845;48.626;9.362;2024-01-30T03:25:00;4.90;;;2.47;;
5646;SDS011;2845;48.626;9.362;2024-01-30T03:27:34;4.60;;;2.33;;
5646;SDS011;2845;48.626;9.362;2024-01-30T03:30:09;5.10;;;2.40;;
5646;SDS011;2845;48.626;9.362;2024-01-30T03:32:43;6.37;;;2.40;;
5646;SDS011;2845;48.626;9.362;2024-01-30T03:35:18;5.23;;;2.13;;
5646;SDS011;2845;48.626;9.362;2024-01-30T03:37:52;5.90;;;2.60;;
5646;SDS011;2845;48.626;9.362;2024-01-30T03:40:28;6.10;;;2.40;;
5646;SDS011;2845;48.626;9.362;2024-01-30T03:43:02;5.40;;;2.10;;
5646;SDS011;2845;48.626;9.362;2024-01-30T03:45:37;5.87;;;2.77;;
5646;SDS011;2845;48.626;9.362;2024-01-30T03:48:11;7.13;;;2.83;;
5646;SDS011;2845;48.626;9.362;2024-01-30T03:50:46;5.60;;;2.77;;
5646;SDS011;2845;48.626;9.362;2024-01-30T03:53:20;5.80;;;2.30;;
5646;SDS011;2845;48.626;9.362;2024-01-30T03:55:56;5.07;;;2.27;;
5646;SDS011;2845;48.626;9.362;2024-01-30T03:58:30;5.10;;;2.30;;
5646;SDS011;2845;48.626;9.362;2024-01-30T04:01:04;6.40;;;2.33;;
5646;SDS011;2845;48.626;9.362;2024-01-30T04:03:38;4.47;;;2.30;;
5646;SDS011;2845;48.626;9.362;2024-01-30T04:06:12;5.83;;;2.80;;
5646;SDS011;2845;48.626;9.362;2024-01-30T04:08:47;8.97;;;2.80;;
5646;SDS011;2845;48.626;9.362;2024-01-30T04:11:22;4.47;;;2.30;;
5646;SDS011;2845;48.626;9.362;2024-01-30T04:13:57;6.97;;;2.50;;
5646;SDS011;2845;48.626;9.362;2024-01-30T04:16:31;5.20;;;2.57;;
5646;SDS011;2845;48.626;9.362;2024-01-30T04:19:05;7.57;;;2.63;;
5646;SDS011;2845;48.626;9.362;2024-01-30T04:21:39;6.33;;;2.53;;
5646;SDS011;2845;48.626;9.362;2024-01-30T04:24:14;6.80;;;2.57;;
5646;SDS011;2845;48.626;9.362;2024-01-30T04:26:52;5.33;;;2.20;;
5646;SDS011;2845;48.626;9.362;2024-01-30T04:29:26;6.20;;;2.90;;
5646;SDS011;2845;48.626;9.362;2024-01-30T04:32:00;6.03;;;3.53;;
5646;SDS011;2845;48.626;9.362;2024-01-30T04:34:35;4.67;;;2.47;;
5646;SDS011;2845;48.626;9.362;2024-01-30T04:37:10;5.27;;;2.80;;
5646;SDS011;2845;48.626;9.362;2024-01-30T04:39:44;7.27;;;2.67;;
5646;SDS011;2845;48.626;9.362;2024-01-30T04:42:20;4.80;;;1.97;;
5646;SDS011;2845;48.626;9.362;2024-01-30T04:44:54;5.00;;;2.43;;
5646;SDS011;2845;48.626;9.362;2024-01-30T04:47:28;6.03;;;2.50;;
5646;SDS011;2845;48.626;9.362;2024-01-30T04:50:02;5.47;;;2.40;;
5646;SDS011;2845;48.626;9.362;2024-01-30T04:52:37;7.83;;;2.80;;
5646;SDS011;2845;48.626;9.362;2024-01-30T04:55:11;5.53;;;2.23;;
5646;SDS011;2845;48.626;9.362;2024-01-30T04:57:47;5.37;;;2.40;;
5646;SDS011;2845;48.626;9.362;2024-01-30T05:00:22;6.13;;;2.47;;
5646;SDS011;2845;48.626;9.362;2024-01-30T05:02:56;5.63;;;2.57;;
5646;SDS011;2845;48.626;9.362;2024-01-30T05:05:30;7.07;;;2.93;;
5646;SDS011;2845;48.626;9.362;2024-01-30T05:08:05;6.27;;;2.77;;
5646;SDS011;2845;48.626;9.362;2024-01-30T05:10:39;6.17;;;2.63;;
5646;SDS011;2845;48.626;9.362;2024-01-30T05:13:15;6.03;;;2.27;;
5646;SDS011;2845;48.626;9.362;2024-01-30T05:15:50;7.37;;;2.37;;
5646;SDS011;2845;48.626;9.362;2024-01-30T05:18:24;5.73;;;2.77;;
5646;SDS011;2845;48.626;9.362;2024-01-30T05:20:58;3.80;;;2.20;;
5646;SDS011;2845;48.626;9.362;2024-01-30T05:23:32;8.53;;;2.87;;
5646;SDS011;2845;48.626;9.362;2024-01-30T05:26:06;6.17;;;2.37;;
5646;SDS011;2845;48.626;9.362;2024-01-30T05:28:42;4.93;;;2.30;;
5646;SDS011;2845;48.626;9.362;2024-01-30T05:31:17;4.57;;;2.07;;
5646;SDS011;2845;48.626;9.362;2024-01-30T05:33:51;6.90;;;2.13;;
5646;SDS011;2845;48.626;9.362;2024-01-30T05:36:25;6.90;;;2.53;;
5646;SDS011;2845;48.626;9.362;2024-01-30T05:39:00;6.07;;;2.60;;
5646;SDS011;2845;48.626;9.362;2024-01-30T05:41:36;7.00;;;2.67;;
5646;SDS011;2845;48.626;9.362;2024-01-30T05:44:11;8.07;;;2.47;;
5646;SDS011;2845;48.626;9.362;2024-01-30T05:46:45;5.97;;;2.20;;
5646;SDS011;2845;48.626;9.362;2024-01-30T05:49:20;5.40;;;2.20;;
5646;SDS011;2845;48.626;9.362;2024-01-30T05:51:54;5.43;;;2.03;;
5646;SDS011;2845;48.626;9.362;2024-01-30T05:54:28;7.13;;;2.60;;
5646;SDS011;2845;48.626;9.362;2024-01-30T05:57:02;4.47;;;2.10;;
5646;SDS011;2845;48.626;9.362;2024-01-30T05:59:38;4.77;;;2.20;;
5646;SDS011;2845;48.626;9.362;2024-01-30T06:02:13;3.77;;;2.03;;
5646;SDS011;2845;48.626;9.362;2024-01-30T06:04:47;6.57;;;2.67;;
5646;SDS011;2845;48.626;9.362;2024-01-30T06:07:22;6.30;;;1.80;;
5646;SDS011;2845;48.626;9.362;2024-01-30T06:09:56;4.07;;;2.27;;
5646;SDS011;2845;48.626;9.362;2024-01-30T06:12:33;5.00;;;2.07;;
5646;SDS011;2845;48.626;9.362;2024-01-30T06:15:09;8.07;;;2.03;;
5646;SDS011;2845;48.626;9.362;2024-01-30T06:17:45;7.00;;;2.63;;
5646;SDS011;2845;48.626;9.362;2024-01-30T06:20:19;5.60;;;2.33;;
5646;SDS011;2845;48.626;9.362;2024-01-30T06:22:53;5.97;;;2.60;;
5646;SDS011;2845;48.626;9.362;2024-01-30T06:25:27;4.23;;;2.13;;
5646;SDS011;2845;48.626;9.362;2024-01-30T06:28:01;4.37;;;2.43;;
5646;SDS011;2845;48.626;9.362;2024-01-30T06:30:37;5.03;;;2.23;;
5646;SDS011;2845;48.626;9.362;2024-01-30T06:33:11;5.73;;;2.57;;
5646;SDS011;2845;48.626;9.362;2024-01-30T06:35:46;3.23;;;1.90;;
5646;SDS011;2845;48.626;9.362;2024-01-30T06:38:20;5.50;;;2.23;;
5646;SDS011;2845;48.626;9.362;2024-01-30T06:40:54;5.53;;;2.50;;
5646;SDS011;2845;48.626;9.362;2024-01-30T06:43:29;5.33;;;2.60;;
5646;SDS011;2845;48.626;9.362;2024-01-30T06:46:04;5.07;;;2.67;;
5646;SDS011;2845;48.626;9.362;2024-01-30T06:48:39;4.13;;;2.10;;
5646;SDS011;2845;48.626;9.362;2024-01-30T06:51:13;4.97;;;2.37;;
5646;SDS011;2845;48.626;9.362;2024-01-30T06:53:49;4.90;;;2.30;;
5646;SDS011;2845;48.626;9.362;2024-01-30T06:56:23;5.00;;;2.17;;
5646;SDS011;2845;48.626;9.362;2024-01-30T06:58:57;3.60;;;1.73;;
5646;SDS011;2845;48.626;9.362;2024-01-30T07:01:33;8.17;;;2.13;;
5646;SDS011;2845;48.626;9.362;2024-01-30T07:04:07;7.20;;;2.63;;
5646;SDS011;2845;48.626;9.362;2024-01-30T07:06:42;5.33;;;2.63;;
5646;SDS011;2845;48.626;9.362;2024-01-30T07:09:16;6.10;;;2.23;;
5646;SDS011;2845;48.626;9.362;2024-01-30T07:11:50;7.20;;;2.47;;
5646;SDS011;2845;48.626;9.362;2024-01-30T07:14:24;7.07;;;2.67;;
5646;SDS011;2845;48.626;9.362;2024-01-30T07:17:00;7.00;;;2.60;;
5646;SDS011;2845;48.626;9.362;2024-01-30T07:19:35;6.97;;;3.10;;
5646;SDS011;2845;48.626;9.362;2024-01-30T07:22:10;6.63;;;3.13;;
5646;SDS011;2845;48.626;9.362;2024-01-30T07:24:44;7.07;;;2.43;;
5646;SDS011;2845;48.626;9.362;2024-01-30T07:27:20;8.80;;;3.10;;
5646;SDS011;2845;48.626;9.362;2024-01-30T07:29:54;5.90;;;2.93;;
5646;SDS011;2845;48.626;9.362;2024-01-30T07:32:30;9.27;;;3.43;;
5646;SDS011;2845;48.626;9.362;2024-01-30T07:35:05;6.57;;;3.00;;
5646;SDS011;2845;48.626;9.362;2024-01-30T07:37:41;7.30;;;3.13;;
5646;SDS011;2845;48.626;9.362;2024-01-30T07:40:15;6.97;;;3.10;;
5646;SDS011;2845;48.626;9.362;2024-01-30T07:42:50;6.90;;;3.33;;
5646;SDS011;2845;48.626;9.362;2024-01-30T07:45:27;7.07;;;3.20;;
5646;SDS011;2845;48.626;9.362;2024-01-30T07:48:06;7.30;;;2.73;;
5646;SDS011;2845;48.626;9.362;2024-01-30T07:50:40;5.87;;;2.67;;
5646;SDS011;2845;48.626;9.362;2024-01-30T07:53:15;7.50;;;3.23;;
5646;SDS011;2845;48.626;9.362;2024-01-30T07:55:49;5.67;;;2.80;;
5646;SDS011;2845;48.626;9.362;2024-01-30T07:58:23;8.10;;;3.77;;
5646;SDS011;2845;48.626;9.362;2024-01-30T08:00:59;8.47;;;3.27;;
5646;SDS011;2845;48.626;9.362;2024-01-30T08:03:35;9.03;;;3.10;;
5646;SDS011;2845;48.626;9.362;2024-01-30T08:06:11;6.00;;;2.77;;
5646;SDS011;2845;48.626;9.362;2024-01-30T08:08:46;7.23;;;3.27;;
5646;SDS011;2845;48.626;9.362;2024-01-30T08:11:20;5.63;;;2.90;;
5646;SDS011;2845;48.626;9.362;2024-01-30T08:13:57;8.50;;;2.70;;
5646;SDS011;2845;48.626;9.362;2024-01-30T08:16:31;6.33;;;2.90;;
5646;SDS011;2845;48.626;9.362;2024-01-30T08:19:07;6.23;;;2.77;;
5646;SDS011;2845;48.626;9.362;2024-01-30T08:21:41;4.07;;;2.30;;
5646;SDS011;2845;48.626;9.362;2024-01-30T08:24:15;5.13;;;2.50;;
5646;SDS011;2845;48.626;9.362;2024-01-30T08:26:50;5.60;;;2.20;;
5646;SDS011;2845;48.626;9.362;2024-01-30T08:29:24;5.43;;;2.70;;
5646;SDS011;2845;48.626;9.362;2024-01-30T08:31:58;6.60;;;2.50;;
5646;SDS011;2845;48.626;9.362;2024-01-30T08:34:34;5.43;;;2.30;;
5646;SDS011;2845;48.626;9.362;2024-01-30T08:37:08;5.57;;;2.43;;
5646;SDS011;2845;48.626;9.362;2024-01-30T08:39:42;6.93;;;2.20;;
5646;SDS011;2845;48.626;9.362;2024-01-30T08:42:17;7.30;;;2.67;;
5646;SDS011;2845;48.626;9.362;2024-01-30T08:44:55;4.53;;;2.13;;
5646;SDS011;2845;48.626;9.362;2024-01-30T08:47:29;6.10;;;2.73;;
5646;SDS011;2845;48.626;9.362;2024-01-30T08:50:06;4.67;;;2.63;;
5646;SDS011;2845;48.626;9.362;2024-01-30T08:52:41;5.47;;;2.57;;
5646;SDS011;2845;48.626;9.362;2024-01-30T08:55:18;4.83;;;2.50;;
5646;SDS011;2845;48.626;9.362;2024-01-30T08:57:52;6.13;;;3.10;;
5646;SDS011;2845;48.626;9.362;2024-01-30T09:00:26;6.70;;;2.53;;
5646;SDS011;2845;48.626;9.362;2024-01-30T09:03:02;6.30;;;2.90;;
5646;SDS011;2845;48.626;9.362;2024-01-30T09:05:38;7.27;;;2.37;;
5646;SDS011;2845;48.626;9.362;2024-01-30T09:08:12;5.78;;;2.88;;
5646;SDS011;2845;48.626;9.362;2024-01-30T09:10:47;4.35;;;2.25;;
5646;SDS011;2845;48.626;9.362;2024-01-30T09:13:22;4.27;;;2.53;;
5646;SDS011;2845;48.626;9.362;2024-01-30T09:15:56;5.43;;;2.73;;
5646;SDS011;2845;48.626;9.362;2024-01-30T09:18:30;4.20;;;2.30;;
5646;SDS011;2845;48.626;9.362;2024-01-30T09:21:06;6.40;;;2.55;;
5646;SDS011;2845;48.626;9.362;2024-01-30T09:23:40;3.97;;;2.10;;
5646;SDS011;2845;48.626;9.362;2024-01-30T09:26:14;5.75;;;2.03;;
5646;SDS011;2845;48.626;9.362;2024-01-30T09:28:49;5.30;;;2.53;;
5646;SDS011;2845;48.626;9.362;2024-01-30T09:31:23;5.32;;;2.17;;
5646;SDS011;2845;48.626;9.362;2024-01-30T09:33:57;4.47;;;2.10;;
5646;SDS011;2845;48.626;9.362;2024-01-30T09:36:32;5.57;;;2.42;;
5646;SDS011;2845;48.626;9.362;2024-01-30T09:39:07;6.03;;;2.55;;
5646;SDS011;2845;48.626;9.362;2024-01-30T09:41:42;4.70;;;2.47;;
5646;SDS011;2845;48.626;9.362;2024-01-30T09:44:21;8.52;;;2.80;;
5646;SDS011;2845;48.626;9.362;2024-01-30T09:46:58;6.50;;;2.65;;
5646;SDS011;2845;48.626;9.362;2024-01-30T09:49:36;5.15;;;2.63;;
5646;SDS011;2845;48.626;9.362;2024-01-30T09:52:13;5.18;;;2.90;;
5646;SDS011;2845;48.626;9.362;2024-01-30T09:54:48;6.22;;;2.63;;
5646;SDS011;2845;48.626;9.362;2024-01-30T09:57:24;5.15;;;2.70;;
5646;SDS011;2845;48.626;9.362;2024-01-30T09:59:59;5.18;;;2.50;;
5646;SDS011;2845;48.626;9.362;2024-01-30T10:02:33;9.45;;;3.60;;
5646;SDS011;2845;48.626;9.362;2024-01-30T10:05:08;7.53;;;2.97;;
5646;SDS011;2845;48.626;9.362;2024-01-30T10:07:52;8.43;;;2.97;;
5646;SDS011;2845;48.626;9.362;2024-01-30T10:10:27;7.22;;;3.10;;
5646;SDS011;2845;48.626;9.362;2024-01-30T10:13:02;5.68;;;3.00;;
5646;SDS011;2845;48.626;9.362;2024-01-30T10:15:37;7.10;;;3.42;;
5646;SDS011;2845;48.626;9.362;2024-01-30T10:18:12;8.27;;;4.13;;
5646;SDS011;2845;48.626;9.362;2024-01-30T10:20:46;8.55;;;4.07;;
5646;SDS011;2845;48.626;9.362;2024-01-30T10:23:22;6.85;;;3.70;;
5646;SDS011;2845;48.626;9.362;2024-01-30T10:25:58;6.15;;;2.83;;
5646;SDS011;2845;48.626;9.362;2024-01-30T10:28:32;6.53;;;3.25;;
5646;SDS011;2845;48.626;9.362;2024-01-30T10:31:07;8.27;;;3.55;;
5646;SDS011;2845;48.626;9.362;2024-01-30T10:33:41;9.35;;;3.47;;
5646;SDS011;2845;48.626;9.362;2024-01-30T10:36:18;6.68;;;3.00;;
5646;SDS011;2845;48.626;9.362;2024-01-30T10:38:55;5.78;;;2.92;;
5646;SDS011;2845;48.626;9.362;2024-01-30T10:41:34;7.47;;;3.13;;
5646;SDS011;2845;48.626;9.362;2024-01-30T10:44:18;10.23;;;3.58;;
5646;SDS011;2845;48.626;9.362;2024-01-30T10:46:56;6.20;;;3.15;;
5646;SDS011;2845;48.626;9.362;2024-01-30T10:49:37;7.88;;;3.50;;
5646;SDS011;2845;48.626;9.362;2024-01-30T10:52:13;4.72;;;3.03;;
5646;SDS011;2845;48.626;9.362;2024-01-30T10:54:51;6.85;;;3.88;;
5646;SDS011;2845;48.626;9.362;2024-01-30T10:57:27;9.35;;;3.83;;
5646;SDS011;2845;48.626;9.362;2024-01-30T11:00:02;7.97;;;3.97;;
5646;SDS011;2845;48.626;9.362;2024-01-30T11:02:43;9.07;;;3.75;;
5646;SDS011;2845;48.626;9.362;2024-01-30T11:05:23;7.65;;;4.28;;
5646;SDS011;2845;48.626;9.362;2024-01-30T11:08:13;9.52;;;4.63;;
5646;SDS011;2845;48.626;9.362;2024-01-30T11:10:49;7.75;;;4.13;;
5646;SDS011;2845;48.626;9.362;2024-01-30T11:13:26;11.35;;;6.15;;
5646;SDS011;2845;48.626;9.362;2024-01-30T11:16:02;16.90;;;7.30;;
5646;SDS011;2845;48.626;9.362;2024-01-30T11:18:38;14.60;;;7.43;;
5646;SDS011;2845;48.626;9.362;2024-01-30T11:21:12;9.93;;;6.07;;
5646;SDS011;2845;48.626;9.362;2024-01-30T11:23:47;14.32;;;6.57;;
5646;SDS011;2845;48.626;9.362;2024-01-30T11:26:25;9.57;;;5.40;;
5646;SDS011;2845;48.626;9.362;2024-01-30T11:29:02;10.77;;;4.78;;
5646;SDS011;2845;48.626;9.362;2024-01-30T11:31:37;9.45;;;4.70;;
5646;SDS011;2845;48.626;9.362;2024-01-30T11:34:11;9.73;;;5.05;;
5646;SDS011;2845;48.626;9.362;2024-01-30T11:36:50;8.15;;;4.30;;
5646;SDS011;2845;48.626;9.362;2024-01-30T11:39:31;7.55;;;3.97;;
5646;SDS011;2845;48.626;9.362;2024-01-30T11:42:07;7.07;;;3.28;;
5646;SDS011;2845;48.626;9.362;2024-01-30T11:44:45;8.23;;;3.53;;
5646;SDS011;2845;48.626;9.362;2024-01-30T11:47:22;9.02;;;3.92;;
5646;SDS011;2845;48.626;9.362;2024-01-30T11:49:56;6.05;;;3.30;;
5646;SDS011;2845;48.626;9.362;2024-01-30T11:52:32;6.05;;;3.13;;
5646;SDS011;2845;48.626;9.362;2024-01-30T11:55:07;6.82;;;3.03;;
5646;SDS011;2845;48.626;9.362;2024-01-30T11:57:44;4.97;;;2.92;;
5646;SDS011;2845;48.626;9.362;2024-01-30T12:00:19;7.45;;;3.42;;
5646;SDS011;2845;48.626;9.362;2024-01-30T12:02:53;7.07;;;3.38;;
5646;SDS011;2845;48.626;9.362;2024-01-30T12:05:29;7.57;;;3.45;;
5646;SDS011;2845;48.626;9.362;2024-01-30T12:08:03;6.57;;;3.47;;
5646;SDS011;2845;48.626;9.362;2024-01-30T12:10:39;6.13;;;3.67;;
5646;SDS011;2845;48.626;9.362;2024-01-30T12:13:15;9.75;;;3.38;;
5646;SDS011;2845;48.626;9.362;2024-01-30T12:15:50;8.73;;;3.53;;
5646;SDS011;2845;48.626;9.362;2024-01-30T12:18:24;5.60;;;3.45;;
5646;SDS011;2845;48.626;9.362;2024-01-30T12:20:58;5.97;;;3.28;;
5646;SDS011;2845;48.626;9.362;2024-01-30T12:23:34;7.40;;;4.15;;
5646;SDS011;2845;48.626;9.362;2024-01-30T12:26:09;8.27;;;3.63;;
5646;SDS011;2845;48.626;9.362;2024-01-30T12:28:49;6.50;;;3.42;;
5646;SDS011;2845;48.626;9.362;2024-01-30T12:31:26;6.80;;;3.85;;
5646;SDS011;2845;48.626;9.362;2024-01-30T12:34:01;9.68;;;3.72;;
5646;SDS011;2845;48.626;9.362;2024-01-30T12:36:36;6.90;;;3.22;;
5646;SDS011;2845;48.626;9.362;2024-01-30T12:39:10;7.22;;;3.65;;
5646;SDS011;2845;48.626;9.362;2024-01-30T12:41:46;8.18;;;4.30;;
5646;SDS011;2845;48.626;9.362;2024-01-30T12:44:22;7.40;;;3.33;;
5646;SDS011;2845;48.626;9.362;2024-01-30T12:46:56;10.77;;;4.47;;
5646;SDS011;2845;48.626;9.362;2024-01-30T12:49:31;8.13;;;3.92;;
5646;SDS011;2845;48.626;9.362;2024-01-30T12:52:05;8.65;;;3.67;;
5646;SDS011;2845;48.626;9.362;2024-01-30T12:54:39;9.75;;;4.50;;
5646;SDS011;2845;48.626;9.362;2024-01-30T12:57:13;9.07;;;4.10;;
5646;SDS011;2845;48.626;9.362;2024-01-30T12:59:49;9.32;;;4.28;;
5646;SDS011;2845;48.626;9.362;2024-01-30T13:02:24;10.60;;;5.00;;
5646;SDS011;2845;48.626;9.362;2024-01-30T13:04:58;10.63;;;4.88;;
5646;SDS011;2845;48.626;9.362;2024-01-30T13:07:33;50.60;;;18.90;;
5646;SDS011;2845;48.626;9.362;2024-01-30T13:10:08;32.05;;;14.52;;
5646;SDS011;2845;48.626;9.362;2024-01-30T13:12:42;28.77;;;10.65;;
5646;SDS011;2845;48.626;9.362;2024-01-30T13:15:18;18.27;;;8.07;;
5646;SDS011;2845;48.626;9.362;2024-01-30T13:17:52;18.08;;;6.78;;
5646;SDS011;2845;48.626;9.362;2024-01-30T13:20:27;13.50;;;5.35;;
5646;SDS011;2845;48.626;9.362;2024-01-30T13:23:01;13.63;;;5.95;;
5646;SDS011;2845;48.626;9.362;2024-01-30T13:25:36;11.50;;;4.97;;
5646;SDS011;2845;48.626;9.362;2024-01-30T13:28:10;11.02;;;5.65;;
5646;SDS011;2845;48.626;9.362;2024-01-30T13:30:46;22.75;;;12.10;;
5646;SDS011;2845;48.626;9.362;2024-01-30T13:33:21;19.65;;;9.73;;
5646;SDS011;2845;48.626;9.362;2024-01-30T13:35:55;17.40;;;7.57;;
5646;SDS011;2845;48.626;9.362;2024-01-30T13:38:29;12.57;;;7.38;;
5646;SDS011;2845;48.626;9.362;2024-01-30T13:41:03;11.55;;;5.90;;
5646;SDS011;2845;48.626;9.362;2024-01-30T13:43:38;9.90;;;5.50;;
5646;SDS011;2845;48.626;9.362;2024-01-30T13:46:14;9.25;;;4.85;;
5646;SDS011;2845;48.626;9.362;2024-01-30T13:48:48;18.38;;;7.95;;
5646;SDS011;2845;48.626;9.362;2024-01-30T13:51:22;31.08;;;10.20;;
5646;SDS011;2845;48.626;9.362;2024-01-30T13:53:56;29.05;;;9.68;;
5646;SDS011;2845;48.626;9.362;2024-01-30T13:56:31;21.55;;;9.07;;
5646;SDS011;2845;48.626;9.362;2024-01-30T13:59:05;20.48;;;8.75;;
5646;SDS011;2845;48.626;9.362;2024-01-30T14:01:41;19.23;;;7.57;;
5646;SDS011;2845;48.626;9.362;2024-01-30T14:04:15;19.20;;;7.65;;
5646;SDS011;2845;48.626;9.362;2024-01-30T14:06:49;14.70;;;6.90;;
5646;SDS011;2845;48.626;9.362;2024-01-30T14:09:35;15.70;;;6.13;;
5646;SDS011;2845;48.626;9.362;2024-01-30T14:12:09;13.00;;;5.93;;
5646;SDS011;2845;48.626;9.362;2024-01-30T14:14:44;10.68;;;5.72;;
5646;SDS011;2845;48.626;9.362;2024-01-30T14:17:19;14.45;;;5.60;;
5646;SDS011;2845;48.626;9.362;2024-01-30T14:19:53;10.73;;;4.90;;
5646;SDS011;2845;48.626;9.362;2024-01-30T14:22:27;10.15;;;4.82;;
5646;SDS011;2845;48.626;9.362;2024-01-30T14:25:02;7.97;;;3.95;;
5646;SDS011;2845;48.626;9.362;2024-01-30T14:27:37;9.02;;;3.70;;
5646;SDS011;2845;48.626;9.362;2024-01-30T14:30:11;8.20;;;4.00;;
5646;SDS011;2845;48.626;9.362;2024-01-30T14:32:47;7.95;;;3.50;;
5646;SDS011;2845;48.626;9.362;2024-01-30T14:35:22;7.93;;;4.03;;
5646;SDS011;2845;48.626;9.362;2024-01-30T14:37:56;7.30;;;4.03;;
5646;SDS011;2845;48.626;9.362;2024-01-30T14:40:30;6.75;;;3.28;;
5646;SDS011;2845;48.626;9.362;2024-01-30T14:43:05;8.27;;;3.60;;
5646;SDS011;2845;48.626;9.362;2024-01-30T14:45:39;7.72;;;3.67;;
5646;SDS011;2845;48.626;9.362;2024-01-30T14:48:15;8.25;;;4.18;;
5646;SDS011;2845;48.626;9.362;2024-01-30T14:50:50;6.90;;;2.95;;
5646;SDS011;2845;48.626;9.362;2024-01-30T14:53:27;7.10;;;3.35;;
5646;SDS011;2845;48.626;9.362;2024-01-30T14:56:01;8.32;;;3.58;;
5646;SDS011;2845;48.626;9.362;2024-01-30T14:58:37;7.13;;;3.67;;
5646;SDS011;2845;48.626;9.362;2024-01-30T15:01:11;8.70;;;3.40;;
5646;SDS011;2845;48.626;9.362;2024-01-30T15:03:47;6.80;;;3.20;;
5646;SDS011;2845;48.626;9.362;2024-01-30T15:06:23;8.68;;;3.03;;
5646;SDS011;2845;48.626;9.362;2024-01-30T15:08:58;6.65;;;3.40;;
5646;SDS011;2845;48.626;9.362;2024-01-30T15:11:32;5.15;;;2.97;;
5646;SDS011;2845;48.626;9.362;2024-01-30T15:14:07;8.48;;;3.40;;
5646;SDS011;2845;48.626;9.362;2024-01-30T15:16:42;6.50;;;3.13;;
5646;SDS011;2845;48.626;9.362;2024-01-30T15:19:17;6.05;;;2.80;;
5646;SDS011;2845;48.626;9.362;2024-01-30T15:21:52;6.03;;;3.20;;
5646;SDS011;2845;48.626;9.362;2024-01-30T15:24:26;6.35;;;2.10;;
5646;SDS011;2845;48.626;9.362;2024-01-30T15:27:00;6.65;;;2.63;;
5646;SDS011;2845;48.626;9.362;2024-01-30T15:29:35;5.05;;;2.72;;
5646;SDS011;2845;48.626;9.362;2024-01-30T15:32:10;6.63;;;2.15;;
5646;SDS011;2845;48.626;9.362;2024-01-30T15:34:45;6.50;;;2.45;;
5646;SDS011;2845;48.626;9.362;2024-01-30T15:37:20;7.20;;;2.33;;
5646;SDS011;2845;48.626;9.362;2024-01-30T15:39:55;5.22;;;2.22;;
5646;SDS011;2845;48.626;9.362;2024-01-30T15:42:29;8.43;;;3.10;;
5646;SDS011;2845;48.626;9.362;2024-01-30T15:45:04;5.90;;;2.38;;
5646;SDS011;2845;48.626;9.362;2024-01-30T15:47:39;6.03;;;2.58;;
5646;SDS011;2845;48.626;9.362;2024-01-30T15:50:14;5.75;;;2.63;;
5646;SDS011;2845;48.626;9.362;2024-01-30T15:52:49;6.97;;;3.10;;
5646;SDS011;2845;48.626;9.362;2024-01-30T15:55:23;6.88;;;2.92;;
5646;SDS011;2845;48.626;9.362;2024-01-30T15:57:58;5.00;;;2.38;;
5646;SDS011;2845;48.626;9.362;2024-01-30T16:00:32;4.38;;;2.60;;
5646;SDS011;2845;48.626;9.362;2024-01-30T16:03:06;4.28;;;2.15;;